Avon, Maine
Current Conditions -  °F | °C
As of 1:15 AM on Sunday 26 Oct 2014 (Local Time) from KWVL Reporting Station
Overcast Overcast  
Wind Chill:   Ceiling: 5000
Heat Index:   Visibility: 5mi
Dew Point:   Wind: 0mph
Humidity: 87%   Direction: NA
Pressure: 29.4"   Gusts: NA
Location:  44.8921°N, 70.379°W
Report Text: KWVL 260515Z 00000KT 5SM SCT041 OVC050 08/06 A2940 RMK AO1 P0001
Loading
Personal Weather Stations






























Interactive Weather Map
Tropical Storm Tracking
New forecast layout! Learn more

10-Day Weather Forecast

Advertisements
Track Severe Weather on mobile